VEGT/GAU METAR and TAF weather

Enter ICAO airport designator
Station Type Date Time Source
VEGT METAR 2022/08/16 19:30 UTC NOAA

VEGT 161930Z 00000KT 3000 BR SCT018 BKN100 27/26 Q1004 NOSIG


Station Type Date Time Source
VEGT Decoded METAR 2022/08/16 19:30 UTC NOAA

Gauhati, India (VEGT) 26-06N 091-35E 54M
Aug 16, 2022 - 03:30 PM EDT / 2022.08.16 1930 UTC
Wind: Calm:0
Visibility: 1 mile(s):0
Sky conditions: mostly cloudy
Weather: mist
Temperature: 80 F (27 C)
Dew Point: 78 F (26 C)
Relative Humidity: 94%
Pressure (altimeter): 29.65 in. Hg (1004 hPa)
ob: VEGT 161930Z 00000KT 3000 BR SCT018 BKN100 27/26 Q1004 NOSIG
cycle: 19

Station Type Date Time Source
VEGT TAF 2020/12/17 12:52 UTC NOAA

TAF VEGT 171100Z 1712/1818 03005KT 2000 BR SCT018 BKN100
BECMG 1713/1715 00000KT 1500 BR
BECMG 1800/1802 0800 FG FEW008
BECMG 1803/1805 03004KT 2000 BR SCT018 BKN100
BECMG 1806/1808 34008KT 3000 HZ FEW020
BECMG 1813/1815 00000KT 2000 BR FEW018 SCT100

Example: see airport list